Time;durP1;ratioP1;P1;durP2;ratioP2;P2;SDS_P1;SDS_P2;PMS_P1;PMS_P2;Temp;Humidity;BMP_temperature;BMP_pressure;BME280_temperature;BME280_humidity;BME280_pressure;Samples;Min_cycle;Max_cycle;Signal;HPM_P1;HPM_P2
2022/10/07 00:02:43;;;;;;;15.93;3.67;;;13.30;99.90;;;;;;6025435;29;20279;-68
2022/10/07 00:05:58;;;;;;;16.95;3.72;;;13.30;99.90;;;;;;6028955;29;20306;-67
2022/10/07 00:09:05;;;;;;;18.05;3.55;;;13.40;99.90;;;;;;6028612;29;20306;-67
2022/10/07 00:12:10;;;;;;;19.50;3.65;;;13.30;99.90;;;;;;6044322;29;20269;-68
2022/10/07 00:15:15;;;;;;;18.20;3.38;;;13.40;99.90;;;;;;6051702;29;20302;-68
2022/10/07 00:18:20;;;;;;;15.48;2.85;;;13.30;99.90;;;;;;6051475;29;20305;-68
2022/10/07 00:21:27;;;;;;;12.80;3.15;;;13.30;99.90;;;;;;6052117;29;20468;-67
2022/10/07 00:24:34;;;;;;;19.73;3.17;;;13.30;99.90;;;;;;6051294;29;20309;-68
2022/10/07 00:27:38;;;;;;;21.45;3.40;;;13.30;99.90;;;;;;6051377;29;20273;-68
2022/10/07 00:30:43;;;;;;;13.35;2.95;;;13.20;99.90;;;;;;6051622;29;20289;-67
2022/10/07 00:33:49;;;;;;;11.30;3.15;;;13.20;99.90;;;;;;6051134;29;20302;-67
2022/10/07 00:36:54;;;;;;;21.63;3.38;;;13.20;99.90;;;;;;6051733;29;20483;-67
2022/10/07 00:40:00;;;;;;;14.88;3.03;;;13.10;99.90;;;;;;6065178;29;20313;-67
2022/10/07 00:43:20;;;;;;;15.60;3.60;;;13.20;99.90;;;;;;6051283;29;20313;-68
2022/10/07 00:46:30;;;;;;;14.00;3.25;;;13.20;99.90;;;;;;6065405;29;20277;-67
2022/10/07 00:49:41;;;;;;;14.50;3.38;;;13.10;99.90;;;;;;6050864;29;20302;-69
2022/10/07 00:52:49;;;;;;;18.70;3.78;;;13.10;99.90;;;;;;6050933;29;20278;-68
2022/10/07 00:56:00;;;;;;;16.30;3.13;;;13.10;99.90;;;;;;6051356;29;20297;-68
2022/10/07 00:59:05;;;;;;;19.20;3.53;;;13.10;99.90;;;;;;6050788;29;20297;-66
2022/10/07 01:02:12;;;;;;;18.13;3.25;;;13.00;99.90;;;;;;6064791;29;20554;-67
2022/10/07 01:05:18;;;;;;;10.65;2.72;;;13.10;99.90;;;;;;6050429;29;20297;-67
2022/10/07 01:08:23;;;;;;;15.65;3.63;;;13.10;99.90;;;;;;6050750;29;20313;-67
2022/10/07 01:11:42;;;;;;;14.98;3.58;;;13.10;99.90;;;;;;6054976;29;20270;-67
2022/10/07 01:14:56;;;;;;;11.13;3.72;;;13.10;99.90;;;;;;6027137;29;20304;-67
2022/10/07 01:18:09;;;;;;;14.55;3.22;;;13.10;99.90;;;;;;6041152;29;20363;-67
2022/10/07 01:21:22;;;;;;;14.93;3.30;;;13.10;99.90;;;;;;6027381;29;20275;-67
2022/10/07 01:24:40;;;;;;;20.02;3.60;;;13.00;99.90;;;;;;6027114;29;20678;-67
2022/10/07 01:27:50;;;;;;;15.23;3.22;;;13.10;99.90;;;;;;6027154;29;20275;-67
2022/10/07 01:30:58;;;;;;;21.75;3.70;;;13.10;99.90;;;;;;6041457;29;20283;-67
2022/10/07 01:34:04;;;;;;;12.73;3.28;;;13.10;99.90;;;;;;6025321;29;20302;-67
2022/10/07 01:37:14;;;;;;;12.52;3.00;;;13.10;99.90;;;;;;6027576;29;20294;-67
2022/10/07 01:40:23;;;;;;;15.52;3.30;;;13.00;99.90;;;;;;6026701;29;20694;-67
2022/10/07 01:43:30;;;;;;;19.45;3.90;;;13.10;99.90;;;;;;6040933;29;20299;-67
2022/10/07 01:46:36;;;;;;;22.30;3.75;;;13.00;99.90;;;;;;6027324;29;20274;-67
2022/10/07 01:49:42;;;;;;;11.65;3.33;;;13.00;99.90;;;;;;6040730;29;20590;-67
2022/10/07 01:53:04;;;;;;;16.25;3.10;;;13.00;99.90;;;;;;6040936;29;20270;-67
2022/10/07 01:56:24;;;;;;;14.52;3.25;;;13.00;99.90;;;;;;6040518;29;20299;-67
2022/10/07 02:00:08;;;;;;;11.90;3.22;;;13.00;99.90;;;;;;6040430;29;20486;-67
2022/10/07 02:03:45;;;;;;;15.13;3.33;;;12.90;99.90;;;;;;6040547;29;20472;-67
2022/10/07 02:06:55;;;;;;;13.27;3.35;;;12.90;99.90;;;;;;6026574;29;20598;-67
2022/10/07 02:10:09;;;;;;;21.17;3.17;;;12.80;99.90;;;;;;6040435;29;20609;-67
2022/10/07 02:13:21;;;;;;;19.42;3.75;;;12.90;99.90;;;;;;6040375;29;20299;-67
2022/10/07 02:16:32;;;;;;;15.30;3.08;;;12.90;99.90;;;;;;6040578;29;20298;-67
2022/10/07 02:19:42;;;;;;;16.85;3.47;;;12.90;99.90;;;;;;6024850;29;20310;-67
2022/10/07 02:22:48;;;;;;;15.88;3.28;;;12.90;99.90;;;;;;6026072;29;20283;-67
2022/10/07 02:25:54;;;;;;;16.88;3.63;;;12.90;99.90;;;;;;6040042;29;20279;-67
2022/10/07 02:29:01;;;;;;;11.27;2.85;;;12.90;99.90;;;;;;6039866;29;20307;-67
2022/10/07 02:32:13;;;;;;;14.88;2.78;;;12.90;99.90;;;;;;6039703;29;20274;-67
2022/10/07 02:35:23;;;;;;;14.70;2.60;;;12.90;99.90;;;;;;6039255;29;20306;-67
2022/10/07 02:38:29;;;;;;;14.30;3.50;;;12.80;99.90;;;;;;6039752;29;20294;-67
2022/10/07 02:41:40;;;;;;;13.15;3.25;;;12.80;99.90;;;;;;6039971;29;20274;-66
2022/10/07 02:44:55;;;;;;;12.43;2.50;;;12.90;99.90;;;;;;6039283;29;20599;-66
2022/10/07 02:48:08;;;;;;;17.63;3.58;;;12.80;99.90;;;;;;6025467;29;20315;-67
2022/10/07 02:51:18;;;;;;;15.18;3.28;;;12.80;99.90;;;;;;6039586;29;20283;-67
2022/10/07 02:54:31;;;;;;;12.02;2.83;;;12.80;99.90;;;;;;6039250;29;20307;-68
2022/10/07 02:57:41;;;;;;;17.13;3.28;;;12.90;99.90;;;;;;6025830;29;20295;-67
2022/10/07 03:00:51;;;;;;;22.58;3.45;;;12.80;99.90;;;;;;6039013;29;20282;-67
2022/10/07 03:03:59;;;;;;;20.17;3.50;;;12.80;99.90;;;;;;6042492;29;20302;-67
2022/10/07 03:07:04;;;;;;;19.83;3.38;;;12.90;99.90;;;;;;6041364;29;20302;-67
2022/10/07 03:10:10;;;;;;;17.27;3.22;;;12.80;99.90;;;;;;6023589;29;20464;-67
2022/10/07 03:13:15;;;;;;;19.58;3.50;;;12.90;99.90;;;;;;6058704;29;20459;-67
2022/10/07 03:16:25;;;;;;;11.48;2.90;;;12.90;99.90;;;;;;6062495;29;20297;-67
2022/10/07 03:19:32;;;;;;;18.63;3.10;;;13.00;99.90;;;;;;6045014;29;20310;-67
2022/10/07 03:22:36;;;;;;;14.65;3.22;;;13.00;99.90;;;;;;6024021;29;20519;-67
2022/10/07 03:25:41;;;;;;;14.38;3.53;;;12.90;99.90;;;;;;6024726;29;20303;-67
2022/10/07 03:28:47;;;;;;;14.02;3.38;;;12.90;99.90;;;;;;6024834;29;20310;-67
2022/10/07 03:31:53;;;;;;;14.68;2.90;;;13.00;99.90;;;;;;6038683;29;20270;-67
2022/10/07 03:34:59;;;;;;;10.38;2.72;;;13.00;99.90;;;;;;6022953;29;20305;-67
2022/10/07 03:38:07;;;;;;;18.17;3.13;;;13.00;99.90;;;;;;6052295;29;20285;-67
2022/10/07 03:41:12;;;;;;;15.48;2.78;;;13.00;99.90;;;;;;6061967;29;20274;-66
2022/10/07 03:44:18;;;;;;;17.85;3.10;;;13.10;99.90;;;;;;6061254;29;20302;-67
2022/10/07 03:47:23;;;;;;;15.13;3.20;;;13.10;99.90;;;;;;6046518;29;20281;-67
2022/10/07 03:50:30;;;;;;;22.13;3.38;;;13.10;99.90;;;;;;6047416;29;20305;-67
2022/10/07 03:53:37;;;;;;;14.35;3.05;;;13.00;99.90;;;;;;6047133;29;20301;-67
2022/10/07 03:56:43;;;;;;;10.38;2.83;;;13.00;99.90;;;;;;6061532;29;20298;-67
2022/10/07 03:59:47;;;;;;;20.95;3.00;;;13.10;99.90;;;;;;6047320;29;20302;-67
2022/10/07 04:02:53;;;;;;;14.63;3.22;;;13.10;99.90;;;;;;6046781;29;20274;-67
2022/10/07 04:06:00;;;;;;;19.00;3.40;;;13.00;99.90;;;;;;6047515;29;20661;-67
2022/10/07 04:09:08;;;;;;;17.33;3.40;;;13.10;99.90;;;;;;6061219;29;20432;-67
2022/10/07 04:12:13;;;;;;;18.58;3.15;;;13.10;99.90;;;;;;6033387;29;20275;-66
2022/10/07 04:15:18;;;;;;;11.95;3.30;;;13.10;99.90;;;;;;6023995;29;20299;-67
2022/10/07 04:18:24;;;;;;;12.77;3.17;;;13.10;99.90;;;;;;6037666;29;20274;-68
2022/10/07 04:21:32;;;;;;;11.60;3.03;;;13.10;99.90;;;;;;6038249;29;20275;-67
2022/10/07 04:24:37;;;;;;;10.85;3.10;;;13.10;99.90;;;;;;6037868;29;20303;-67
2022/10/07 04:27:42;;;;;;;15.23;3.05;;;13.10;99.90;;;;;;6038520;29;20278;-67
2022/10/07 04:30:56;;;;;;;17.25;2.50;;;13.20;99.90;;;;;;6037078;29;20275;-67
2022/10/07 04:34:09;;;;;;;16.05;4.28;;;13.20;99.90;;;;;;6037540;29;20303;-68
2022/10/07 04:37:19;;;;;;;15.77;3.42;;;13.10;99.90;;;;;;6038254;29;20298;-67
2022/10/07 04:40:26;;;;;;;8.05;2.85;;;13.10;99.90;;;;;;6037550;29;20466;-67
2022/10/07 04:43:33;;;;;;;13.30;3.22;;;13.00;99.90;;;;;;6037354;29;20318;-67
2022/10/07 04:46:42;;;;;;;12.80;3.15;;;13.00;99.90;;;;;;6038433;29;20279;-68
2022/10/07 04:49:52;;;;;;;13.00;3.22;;;13.00;99.90;;;;;;6025057;29;20302;-68
2022/10/07 04:52:59;;;;;;;12.60;3.13;;;12.90;99.90;;;;;;6040957;29;20270;-68
2022/10/07 04:56:10;;;;;;;15.10;3.33;;;13.00;99.90;;;;;;6042277;29;20282;-67
2022/10/07 04:59:15;;;;;;;12.07;3.17;;;13.00;99.90;;;;;;6027609;29;20574;-68
2022/10/07 05:02:20;;;;;;;9.18;2.80;;;13.00;99.90;;;;;;6041592;29;20270;-67
2022/10/07 05:05:26;;;;;;;15.13;3.17;;;13.00;99.90;;;;;;6027405;29;20319;-68
2022/10/07 05:08:34;;;;;;;12.65;2.72;;;13.00;99.90;;;;;;6041073;29;20306;-67
2022/10/07 05:11:39;;;;;;;21.13;3.83;;;13.00;99.90;;;;;;6051215;29;20454;-67
2022/10/07 05:14:50;;;;;;;16.65;3.35;;;13.00;99.90;;;;;;6064642;29;20302;-67
2022/10/07 05:17:54;;;;;;;16.70;3.40;;;12.90;99.90;;;;;;6050280;29;20633;-67
2022/10/07 05:21:05;;;;;;;9.68;2.97;;;13.00;99.90;;;;;;6048652;29;20282;-67
2022/10/07 05:24:14;;;;;;;14.80;4.03;;;13.00;99.90;;;;;;6064220;29;20297;-67
2022/10/07 05:27:19;;;;;;;22.10;4.68;;;13.10;99.90;;;;;;6050703;29;20275;-67
2022/10/07 05:30:24;;;;;;;23.70;6.20;;;13.10;99.90;;;;;;6064086;29;20629;-66
2022/10/07 05:33:30;;;;;;;16.38;4.00;;;13.10;99.90;;;;;;6049963;29;20297;-66
2022/10/07 05:36:36;;;;;;;19.38;4.28;;;13.10;99.90;;;;;;6050375;29;20282;-67
2022/10/07 05:39:43;;;;;;;22.63;4.30;;;13.10;99.90;;;;;;6063618;29;20301;-67
2022/10/07 05:42:53;;;;;;;28.60;3.78;;;13.10;99.90;;;;;;6063567;29;20278;-68
2022/10/07 05:46:01;;;;;;;23.67;4.05;;;13.10;99.90;;;;;;6064308;29;20266;-67
2022/10/07 05:49:07;;;;;;;26.33;4.85;;;13.20;99.90;;;;;;6063874;29;20468;-67
2022/10/07 05:52:15;;;;;;;23.20;5.03;;;13.20;99.90;;;;;;6064060;29;20277;-68
2022/10/07 05:55:23;;;;;;;25.15;3.53;;;13.30;99.90;;;;;;6063226;29;20306;-67
2022/10/07 05:58:29;;;;;;;12.77;3.00;;;13.30;99.90;;;;;;6063344;29;20582;-67
2022/10/07 06:01:34;;;;;;;16.63;3.47;;;13.40;99.90;;;;;;6062919;29;20459;-67
2022/10/07 06:04:46;;;;;;;18.48;3.28;;;13.40;99.90;;;;;;6063437;29;20294;-67
2022/10/07 06:07:52;;;;;;;17.98;3.55;;;13.40;99.90;;;;;;6062919;29;20306;-68
2022/10/07 06:14:23;;;;;;;14.88;3.20;;;13.50;99.90;;;;;;6040106;29;20321;-67
2022/10/07 06:17:28;;;;;;;17.08;3.53;;;13.50;99.90;;;;;;6026404;29;20274;-66
2022/10/07 06:20:36;;;;;;;17.77;3.65;;;13.50;99.90;;;;;;6039983;29;20308;-67
2022/10/07 06:23:41;;;;;;;14.98;3.40;;;13.50;99.90;;;;;;6039637;29;20302;-68
2022/10/07 06:26:50;;;;;;;13.00;3.25;;;13.60;99.90;;;;;;6026476;29;20274;-67
2022/10/07 06:29:56;;;;;;;10.65;3.35;;;13.60;99.90;;;;;;6039480;29;20249;-67
2022/10/07 06:33:01;;;;;;;12.27;2.97;;;13.60;99.90;;;;;;6025257;29;20464;-67
2022/10/07 06:36:09;;;;;;;13.55;3.17;;;13.60;99.90;;;;;;6040185;29;20283;-67
2022/10/07 06:39:15;;;;;;;15.93;3.47;;;13.60;99.90;;;;;;6039502;29;20307;-67
2022/10/07 06:42:22;;;;;;;11.40;3.03;;;13.50;99.90;;;;;;6040075;29;20278;-67
2022/10/07 06:45:53;;;;;;;13.70;3.13;;;13.60;99.90;;;;;;6025573;29;20275;-67
2022/10/07 06:48:59;;;;;;;14.88;3.40;;;13.60;99.90;;;;;;6038891;29;20470;-66
2022/10/07 06:52:04;;;;;;;15.68;3.22;;;13.60;99.90;;;;;;6025686;29;20468;-66
2022/10/07 06:55:10;;;;;;;16.95;3.17;;;13.70;99.90;;;;;;6038722;29;20303;-66
2022/10/07 06:58:17;;;;;;;6.53;2.75;;;13.80;99.90;;;;;;6038801;29;20481;-68
2022/10/07 07:01:22;;;;;;;16.10;3.28;;;13.80;99.90;;;;;;6039542;29;20286;-66
2022/10/07 07:04:27;;;;;;;12.70;2.95;;;13.80;99.90;;;;;;6039115;29;20303;-66
2022/10/07 07:07:33;;;;;;;11.50;3.28;;;13.80;99.90;;;;;;6039289;29;20305;-67
2022/10/07 07:10:40;;;;;;;12.38;2.90;;;13.90;99.90;;;;;;6041077;29;20302;-67
2022/10/07 07:13:48;;;;;;;14.68;3.65;;;13.90;99.90;;;;;;6061447;29;20301;-67
2022/10/07 07:16:53;;;;;;;14.63;3.22;;;13.80;99.90;;;;;;6048290;29;20274;-67
2022/10/07 07:20:01;;;;;;;14.23;2.63;;;13.90;99.90;;;;;;6061796;29;20309;-66
2022/10/07 07:23:08;;;;;;;18.42;3.65;;;13.90;99.90;;;;;;6061413;29;20293;-66
2022/10/07 07:26:14;;;;;;;12.13;3.05;;;13.90;99.90;;;;;;6061870;29;20274;-67
2022/10/07 07:29:21;;;;;;;13.50;3.10;;;14.00;99.90;;;;;;6061148;29;20305;-67
2022/10/07 07:32:36;;;;;;;10.00;2.60;;;14.00;99.90;;;;;;6061952;29;20277;-66
2022/10/07 07:35:42;;;;;;;15.38;3.47;;;14.00;99.90;;;;;;6061402;29;20301;-66
2022/10/07 07:38:52;;;;;;;16.27;3.35;;;14.00;99.90;;;;;;6061517;29;20302;-66
2022/10/07 07:41:57;;;;;;;16.77;3.28;;;14.00;99.90;;;;;;6061759;29;20278;-66
2022/10/07 07:45:04;;;;;;;16.10;2.60;;;14.00;99.90;;;;;;6060803;29;20493;-66
2022/10/07 07:48:14;;;;;;;15.23;3.30;;;14.00;99.90;;;;;;6047335;29;20294;-66
2022/10/07 07:51:20;;;;;;;16.50;3.25;;;14.00;99.90;;;;;;6047390;29;20282;-66
2022/10/07 07:54:27;;;;;;;10.55;2.42;;;14.00;99.90;;;;;;6061420;29;20302;-66
2022/10/07 07:57:32;;;;;;;17.45;2.90;;;14.00;99.90;;;;;;6061824;29;20275;-66
2022/10/07 08:00:42;;;;;;;14.40;2.92;;;14.00;99.90;;;;;;6061117;29;20321;-67
2022/10/07 08:03:49;;;;;;;14.93;2.95;;;14.10;99.90;;;;;;6060984;29;20485;-67
2022/10/07 08:06:55;;;;;;;12.82;3.53;;;14.10;99.90;;;;;;6060854;29;20577;-67
2022/10/07 08:10:00;;;;;;;20.48;3.13;;;14.10;99.90;;;;;;6060977;29;20301;-67
2022/10/07 08:13:07;;;;;;;9.98;2.67;;;14.10;99.90;;;;;;6039739;29;20270;-67
2022/10/07 08:16:15;;;;;;;13.93;3.03;;;14.10;99.90;;;;;;6038860;29;20278;-67
2022/10/07 08:19:22;;;;;;;15.10;3.00;;;14.20;99.90;;;;;;6037910;29;20302;-66
2022/10/07 08:22:28;;;;;;;13.07;2.80;;;14.10;99.90;;;;;;6038606;29;20464;-66
2022/10/07 08:25:33;;;;;;;10.55;2.75;;;14.20;99.90;;;;;;6041843;29;20306;-67
2022/10/07 08:28:41;;;;;;;11.18;3.13;;;14.30;99.90;;;;;;6042748;29;20302;-66
2022/10/07 08:31:49;;;;;;;13.88;2.60;;;14.30;99.90;;;;;;6042975;29;20459;-67
2022/10/07 08:34:55;;;;;;;16.02;3.30;;;14.30;99.90;;;;;;6027912;29;20318;-66
2022/10/07 08:38:00;;;;;;;14.02;3.30;;;14.30;99.90;;;;;;6042092;29;20275;-67
2022/10/07 08:41:27;;;;;;;15.20;3.70;;;14.30;99.90;;;;;;6028822;29;20586;-66
2022/10/07 08:44:37;;;;;;;15.30;3.10;;;14.40;99.90;;;;;;6027915;29;20298;-66
2022/10/07 08:47:46;;;;;;;10.75;3.10;;;14.40;99.90;;;;;;6028622;29;20590;-65
2022/10/07 08:50:56;;;;;;;14.63;2.70;;;14.40;99.90;;;;;;6027731;29;20282;-66
2022/10/07 08:54:01;;;;;;;10.18;3.20;;;14.50;99.90;;;;;;6027746;29;20458;-66
2022/10/07 08:57:14;;;;;;;7.55;2.55;;;14.60;99.90;;;;;;6028321;29;20275;-66
2022/10/07 09:00:21;;;;;;;14.45;3.00;;;14.60;99.90;;;;;;6027674;29;20310;-67
2022/10/07 09:03:37;;;;;;;18.75;3.83;;;14.70;99.90;;;;;;6027383;29;20299;-66
2022/10/07 09:06:45;;;;;;;14.68;2.47;;;14.70;99.90;;;;;;6027976;29;20306;-66
2022/10/07 09:09:55;;;;;;;14.00;2.70;;;14.70;99.90;;;;;;6041442;29;20303;-66
2022/10/07 09:13:03;;;;;;;8.90;2.45;;;14.70;99.90;;;;;;6047500;29;20271;-66
2022/10/07 09:16:12;;;;;;;9.30;2.58;;;14.70;99.90;;;;;;6050793;29;20277;-65
2022/10/07 09:19:28;;;;;;;14.43;2.55;;;14.80;99.90;;;;;;6050403;29;20302;-67
2022/10/07 09:22:37;;;;;;;8.85;2.70;;;14.90;99.90;;;;;;6050641;29;20294;-66
2022/10/07 09:25:42;;;;;;;3.95;2.30;;;14.90;99.90;;;;;;6050201;29;20585;-67
2022/10/07 09:28:48;;;;;;;8.18;2.63;;;14.90;99.90;;;;;;6049974;29;20310;-65
2022/10/07 09:31:54;;;;;;;12.63;2.53;;;14.90;99.90;;;;;;6050651;29;20456;-68
2022/10/07 09:35:04;;;;;;;10.82;2.72;;;15.00;99.90;;;;;;6049766;29;20338;-68
2022/10/07 09:38:12;;;;;;;12.10;2.88;;;15.00;99.90;;;;;;6049941;29;20597;-68
2022/10/07 09:41:20;;;;;;;10.63;2.90;;;15.10;99.90;;;;;;6050414;29;20625;-68
2022/10/07 09:44:26;;;;;;;9.85;3.00;;;15.10;99.90;;;;;;6049909;29;20306;-68
2022/10/07 09:47:39;;;;;;;7.78;2.58;;;15.10;99.90;;;;;;6049865;29;20271;-68
2022/10/07 09:50:45;;;;;;;9.35;2.65;;;15.20;99.90;;;;;;6063676;29;20310;-67
2022/10/07 09:54:01;;;;;;;12.30;3.35;;;15.10;99.90;;;;;;6063463;29;20297;-67
2022/10/07 09:57:10;;;;;;;11.80;2.70;;;15.20;99.90;;;;;;6050063;29;20446;-66
2022/10/07 10:00:25;;;;;;;10.48;2.80;;;15.20;99.90;;;;;;6049307;29;20313;-68
2022/10/07 10:03:32;;;;;;;14.20;2.90;;;15.10;99.90;;;;;;6049091;29;20294;-67
2022/10/07 10:06:47;;;;;;;6.03;2.50;;;15.10;99.90;;;;;;6049454;29;20301;-67
2022/10/07 10:09:53;;;;;;;7.10;2.22;;;15.10;99.90;;;;;;6049028;29;20597;-67
2022/10/07 10:13:02;;;;;;;11.10;3.03;;;15.10;99.90;;;;;;6029111;29;20267;-67
2022/10/07 10:16:34;;;;;;;5.55;3.00;;;15.10;99.90;;;;;;6026603;29;20374;-67
2022/10/07 10:19:40;;;;;;;12.02;2.60;;;15.10;99.90;;;;;;6026160;29;20302;-66
2022/10/07 10:22:46;;;;;;;6.75;2.40;;;15.10;99.90;;;;;;6025979;29;20301;-66
2022/10/07 10:26:25;;;;;;;9.82;2.75;;;15.20;99.90;;;;;;6025630;29;20574;-67
2022/10/07 10:29:52;;;;;;;8.95;2.47;;;15.20;99.90;;;;;;6025715;29;20299;-67
2022/10/07 10:33:19;;;;;;;6.90;2.45;;;15.30;99.90;;;;;;6025244;29;20285;-67
2022/10/07 10:36:26;;;;;;;11.27;2.63;;;15.20;99.90;;;;;;6025677;29;20279;-67
2022/10/07 10:39:48;;;;;;;12.35;2.70;;;15.20;99.90;;;;;;6025787;29;20298;-67
2022/10/07 10:43:01;;;;;;;11.88;3.10;;;15.20;99.90;;;;;;6025544;29;20313;-67
2022/10/07 10:46:24;;;;;;;9.85;3.03;;;15.20;99.90;;;;;;6025260;29;20275;-67
2022/10/07 10:49:35;;;;;;;9.38;2.70;;;15.20;99.90;;;;;;6025181;29;20298;-67
2022/10/07 10:52:52;;;;;;;9.43;2.60;;;15.10;99.90;;;;;;6025879;29;20278;-66
2022/10/07 10:56:12;;;;;;;10.90;2.40;;;15.10;99.90;;;;;;6024811;29;20283;-67
2022/10/07 10:59:42;;;;;;;9.18;2.60;;;15.10;99.90;;;;;;6025354;29;20294;-67
2022/10/07 11:03:12;;;;;;;11.45;2.60;;;15.10;99.90;;;;;;6025291;29;20294;-67
2022/10/07 11:06:18;;;;;;;7.57;2.50;;;15.10;99.90;;;;;;6024149;29;20282;-67
2022/10/07 11:09:31;;;;;;;7.53;2.10;;;15.20;99.90;;;;;;6025084;29;20298;-67
2022/10/07 11:12:41;;;;;;;11.00;2.50;;;15.20;99.90;;;;;;6042566;29;20278;-67
2022/10/07 11:15:50;;;;;;;8.70;2.38;;;15.20;99.90;;;;;;6047891;29;20635;-66
2022/10/07 11:18:59;;;;;;;10.25;2.83;;;15.20;99.90;;;;;;6047638;29;20301;-67
2022/10/07 11:22:08;;;;;;;9.82;2.38;;;15.20;99.90;;;;;;6048224;29;20290;-67
2022/10/07 11:25:24;;;;;;;10.43;3.08;;;15.30;99.90;;;;;;6047838;29;20318;-66
2022/10/07 11:28:35;;;;;;;8.40;2.35;;;15.30;99.90;;;;;;6047604;29;20302;-67
2022/10/07 11:31:44;;;;;;;9.48;2.20;;;15.40;99.90;;;;;;6047695;29;20458;-67
2022/10/07 11:34:55;;;;;;;11.40;2.58;;;15.40;99.90;;;;;;6047441;29;20297;-67
2022/10/07 11:38:06;;;;;;;9.50;2.67;;;15.40;99.90;;;;;;6047482;29;20431;-67
2022/10/07 11:41:18;;;;;;;4.85;1.95;;;15.30;99.90;;;;;;6047771;29;20270;-66
2022/10/07 11:44:28;;;;;;;9.43;2.10;;;15.40;99.90;;;;;;6047320;29;20302;-67
2022/10/07 11:47:38;;;;;;;6.97;2.20;;;15.50;99.90;;;;;;6047968;29;20277;-67
2022/10/07 11:50:49;;;;;;;3.95;2.17;;;15.50;99.90;;;;;;6047244;29;20305;-67
2022/10/07 11:53:55;;;;;;;6.38;2.22;;;15.50;99.90;;;;;;6047280;29;20330;-67
2022/10/07 11:57:00;;;;;;;12.23;2.53;;;15.50;99.90;;;;;;6047785;29;20270;-67
2022/10/07 12:00:22;;;;;;;9.30;2.55;;;15.60;99.90;;;;;;6046201;29;20621;-67
2022/10/07 12:03:47;;;;;;;7.03;1.90;;;15.70;99.90;;;;;;6046833;29;20307;-67
2022/10/07 12:07:56;;;;;;;5.88;2.22;;;15.70;99.90;;;;;;6047375;29;20436;-67
2022/10/07 12:11:39;;;;;;;8.45;2.28;;;15.70;99.90;;;;;;6041688;29;20283;-67
2022/10/07 12:14:46;;;;;;;10.95;2.20;;;15.80;99.90;;;;;;6019615;29;20314;-67
2022/10/07 12:17:56;;;;;;;9.20;2.30;;;15.90;99.90;;;;;;6023749;29;20271;-67
2022/10/07 12:21:08;;;;;;;6.22;2.10;;;15.90;99.90;;;;;;6024575;29;20274;-66
2022/10/07 12:24:15;;;;;;;4.90;2.30;;;15.90;99.90;;;;;;6023814;29;20306;-66
2022/10/07 12:27:23;;;;;;;7.72;2.50;;;16.00;99.90;;;;;;6024241;29;20283;-68
2022/10/07 12:30:42;;;;;;;11.63;2.30;;;16.00;99.90;;;;;;6024056;29;20581;-68
2022/10/07 12:33:56;;;;;;;6.75;2.58;;;16.00;99.90;;;;;;6023778;29;20314;-67
2022/10/07 12:37:39;;;;;;;5.75;2.22;;;16.00;99.90;;;;;;6023967;29;20271;-67
2022/10/07 12:40:50;;;;;;;8.68;2.47;;;16.00;99.90;;;;;;6023232;29;20311;-67
2022/10/07 12:44:05;;;;;;;6.78;2.17;;;16.00;99.90;;;;;;6023760;29;20310;-67
2022/10/07 12:47:19;;;;;;;9.00;2.25;;;16.10;99.90;;;;;;6024260;29;20309;-67
2022/10/07 12:50:26;;;;;;;8.85;2.80;;;16.20;99.90;;;;;;6037332;29;20501;-67
2022/10/07 12:53:40;;;;;;;10.63;2.28;;;16.20;99.90;;;;;;6023426;29;20311;-67
2022/10/07 12:56:45;;;;;;;7.22;2.65;;;16.20;99.90;;;;;;6023651;29;20548;-67
2022/10/07 12:59:59;;;;;;;10.63;2.60;;;16.20;99.90;;;;;;6023549;29;20294;-67
2022/10/07 13:03:37;;;;;;;8.80;2.72;;;16.10;99.90;;;;;;6023311;29;20302;-67
2022/10/07 13:07:37;;;;;;;4.97;2.50;;;16.20;99.90;;;;;;6023985;29;20493;-67
2022/10/07 13:11:03;;;;;;;4.90;2.22;;;16.20;99.90;;;;;;5997389;29;20307;-67
2022/10/07 13:14:13;;;;;;;6.30;1.92;;;16.20;99.90;;;;;;6050379;29;20310;-67
2022/10/07 13:17:29;;;;;;;6.43;2.25;;;16.20;99.90;;;;;;6050891;29;20274;-67
2022/10/07 13:20:46;;;;;;;7.28;1.92;;;16.20;99.90;;;;;;6050367;29;20384;-67
2022/10/07 13:23:54;;;;;;;5.25;1.90;;;16.30;99.90;;;;;;6049913;29;20318;-68
2022/10/07 13:26:59;;;;;;;4.55;1.73;;;16.30;99.90;;;;;;6050574;29;20278;-68
2022/10/07 13:30:07;;;;;;;9.13;2.20;;;16.30;99.90;;;;;;6049939;29;20298;-67
2022/10/07 13:33:26;;;;;;;4.63;2.42;;;16.30;99.90;;;;;;6050028;29;20310;-67
2022/10/07 13:36:32;;;;;;;8.70;2.08;;;16.30;99.90;;;;;;6050547;29;20270;-66
2022/10/07 13:39:39;;;;;;;3.30;2.00;;;16.30;99.90;;;;;;6049483;29;20374;-67
2022/10/07 13:42:45;;;;;;;11.80;2.40;;;16.30;99.90;;;;;;6050182;29;20294;-67
2022/10/07 13:45:50;;;;;;;6.43;2.33;;;16.30;99.90;;;;;;6049720;29;20301;-67
2022/10/07 13:48:55;;;;;;;7.55;2.88;;;16.30;99.90;;;;;;6049710;29;20630;-67
2022/10/07 13:52:04;;;;;;;3.13;1.75;;;16.30;99.90;;;;;;6050158;29;20490;-67
2022/10/07 13:55:27;;;;;;;4.18;2.00;;;16.40;99.90;;;;;;6049129;29;20302;-66
2022/10/07 13:58:32;;;;;;;9.90;2.88;;;16.30;99.90;;;;;;6049028;29;20598;-67
2022/10/07 14:01:39;;;;;;;8.40;2.60;;;16.40;99.90;;;;;;6049886;29;20305;-67
2022/10/07 14:04:53;;;;;;;8.98;2.20;;;16.30;99.90;;;;;;6048954;29;20301;-67
2022/10/07 14:08:00;;;;;;;6.43;2.13;;;16.40;99.90;;;;;;6049289;29;20451;-67
2022/10/07 14:11:13;;;;;;;3.78;2.13;;;16.40;99.90;;;;;;6043754;29;20511;-67
2022/10/07 14:14:20;;;;;;;3.42;2.17;;;16.40;99.90;;;;;;6026094;29;20303;-67
2022/10/07 14:17:34;;;;;;;5.07;1.77;;;16.40;99.90;;;;;;6026307;29;20275;-67
2022/10/07 14:20:42;;;;;;;7.18;2.28;;;16.40;99.90;;;;;;6025668;29;20303;-67
2022/10/07 14:23:47;;;;;;;3.13;1.80;;;16.40;99.90;;;;;;6025499;29;20350;-67
2022/10/07 14:26:53;;;;;;;7.95;3.13;;;16.40;99.90;;;;;;6026698;29;20279;-68
2022/10/07 14:30:00;;;;;;;7.72;2.80;;;16.30;99.90;;;;;;6025832;29;20306;-68
2022/10/07 14:36:34;;;;;;;11.15;3.08;;;16.30;99.90;;;;;;6025790;29;20278;-67
2022/10/07 14:39:42;;;;;;;7.45;2.97;;;16.30;99.90;;;;;;6025112;29;20298;-68
2022/10/07 14:42:48;;;;;;;12.82;2.42;;;16.30;99.90;;;;;;6025424;29;20275;-67
2022/10/07 14:45:54;;;;;;;8.07;2.50;;;16.30;99.90;;;;;;6024667;29;20294;-66
2022/10/07 14:48:59;;;;;;;5.43;2.08;;;16.30;99.90;;;;;;6024880;29;20310;-67
2022/10/07 14:52:05;;;;;;;5.07;2.20;;;16.30;99.90;;;;;;6025383;29;20590;-67
2022/10/07 14:55:17;;;;;;;4.60;2.00;;;16.20;99.90;;;;;;6025204;29;20303;-67
2022/10/07 14:58:24;;;;;;;4.97;1.88;;;16.20;99.90;;;;;;6025125;29;20366;-67
2022/10/07 15:01:29;;;;;;;3.35;1.67;;;16.20;99.90;;;;;;6025571;29;20350;-68
2022/10/07 15:04:34;;;;;;;3.10;2.10;;;16.20;99.90;;;;;;6024955;29;20299;-68
2022/10/07 15:07:39;;;;;;;4.22;1.77;;;16.20;99.90;;;;;;6025518;29;20307;-67
2022/10/07 15:10:45;;;;;;;3.83;1.70;;;16.10;99.90;;;;;;6027432;29;20508;-67
2022/10/07 15:13:51;;;;;;;4.80;1.70;;;16.10;99.90;;;;;;6047800;29;20309;-67
2022/10/07 15:16:56;;;;;;;6.40;2.20;;;16.10;99.90;;;;;;6048150;29;20283;-68
2022/10/07 15:20:01;;;;;;;5.53;2.20;;;16.00;99.90;;;;;;6047323;29;20301;-67
2022/10/07 15:23:07;;;;;;;6.18;1.80;;;16.00;99.90;;;;;;6047728;29;20269;-67
2022/10/07 15:26:13;;;;;;;4.70;2.33;;;16.00;99.90;;;;;;6047673;29;20298;-67
2022/10/07 15:29:20;;;;;;;2.13;1.90;;;16.00;99.90;;;;;;6047468;29;20604;-67
2022/10/07 15:32:28;;;;;;;9.05;2.28;;;16.00;99.90;;;;;;6047939;29;20463;-67
2022/10/07 15:35:35;;;;;;;8.07;2.15;;;16.00;99.90;;;;;;6047247;29;20409;-67
2022/10/07 15:38:40;;;;;;;2.92;1.90;;;15.90;99.90;;;;;;6047153;29;20480;-67
2022/10/07 15:41:45;;;;;;;6.18;2.05;;;15.90;99.90;;;;;;6061301;29;20278;-66
2022/10/07 15:44:51;;;;;;;7.75;3.35;;;15.90;99.90;;;;;;6046772;29;20305;-66
2022/10/07 15:47:56;;;;;;;6.03;2.75;;;15.90;99.90;;;;;;6047013;29;20454;-67
2022/10/07 15:51:04;;;;;;;5.63;2.33;;;15.80;99.90;;;;;;6047982;29;20289;-67
2022/10/07 15:54:10;;;;;;;3.35;1.80;;;15.80;99.90;;;;;;6047240;29;20601;-67
2022/10/07 15:57:15;;;;;;;2.05;1.73;;;15.80;99.90;;;;;;6047428;29;20290;-67
2022/10/07 16:00:21;;;;;;;5.30;1.73;;;15.80;99.90;;;;;;6047395;29;20301;-67
2022/10/07 16:03:28;;;;;;;8.15;1.52;;;15.70;99.90;;;;;;6047001;29;20297;-68
2022/10/07 16:06:35;;;;;;;15.00;2.20;;;15.70;99.90;;;;;;6047128;29;20305;-68
2022/10/07 16:09:40;;;;;;;2.63;1.42;;;15.70;99.90;;;;;;6046979;29;20298;-68
2022/10/07 16:12:45;;;;;;;1.77;1.65;;;15.70;99.90;;;;;;6029340;29;20267;-68
2022/10/07 16:16:01;;;;;;;7.72;2.33;;;15.60;99.90;;;;;;6024105;29;20493;-68
2022/10/07 16:19:07;;;;;;;6.28;3.33;;;15.50;99.90;;;;;;6024099;29;20298;-68
2022/10/07 16:22:15;;;;;;;7.13;1.92;;;15.50;99.90;;;;;;6024682;29;20554;-68
2022/10/07 16:25:20;;;;;;;41.60;20.27;;;15.30;99.90;;;;;;6023940;29;20309;-68
2022/10/07 16:31:49;;;;;;;4.07;3.30;;;15.10;99.90;;;;;;6024224;29;20283;-67